Time;durP1;ratioP1;P1;durP2;ratioP2;P2;SDS_P1;SDS_P2;PMS_P1;PMS_P2;Temp;Humidity;BMP_temperature;BMP_pressure;BME280_temperature;BME280_humidity;BME280_pressure;Samples;Min_cycle;Max_cycle;Signal;HPM_P1;HPM_P2
2022/07/01 00:00:36;;;;;;;;;;;;;;;;;;2132585;27;20274;-43
2022/07/01 00:01:37;;;;;;;;;;;;;;;;;;2132318;27;19923;-43
2022/07/01 00:02:38;;;;;;;;;;;;;;;;;;2132477;27;20013;-44
2022/07/01 00:03:39;;;;;;;;;;;;;;;;;;2132357;27;19934;-43
2022/07/01 00:04:40;;;;;;;;;;;;;;;;;;2132325;27;19927;-44
2022/07/01 00:05:41;;;;;;;;;;;;;;;;;;2132314;27;19972;-43
2022/07/01 00:06:41;;;;;;;;;;;;;;;;;;2132352;27;19923;-43
2022/07/01 00:07:42;;;;;;;;;;;;;;;;;;2132307;27;19945;-44
2022/07/01 00:08:43;;;;;;;;;;;;;;;;;;2132372;27;19923;-44
2022/07/01 00:09:44;;;;;;;;;;;;;;;;;;2132235;27;20375;-43
2022/07/01 00:10:45;;;;;;;;;;;;;;;;;;2132414;27;19923;-44
2022/07/01 00:11:46;;;;;;;;;;;;;;;;;;2124713;27;19984;-44
2022/07/01 00:12:46;;;;;;;;;;;;;;;;;;2123833;28;20300;-44
2022/07/01 00:13:47;;;;;;;;;;;;;;;;;;2123692;28;19923;-43
2022/07/01 00:14:48;;;;;;;;;;;;;;;;;;2123804;28;19931;-44
2022/07/01 00:15:49;;;;;;;;;;;;;;;;;;2123597;27;19946;-43
2022/07/01 00:16:50;;;;;;;;;;;;;;;;;;2123778;28;20014;-44
2022/07/01 00:17:51;;;;;;;;;;;;;;;;;;2123701;28;20364;-43
2022/07/01 00:18:52;;;;;;;;;;;;;;;;;;2123710;28;19924;-44
2022/07/01 00:19:53;;;;;;;;;;;;;;;;;;2123562;28;19923;-44
2022/07/01 00:20:53;;;;;;;;;;;;;;;;;;2123554;27;19976;-44
2022/07/01 00:21:54;;;;;;;;;;;;;;;;;;2123578;28;19923;-46
2022/07/01 00:22:55;;;;;;;;;;;;;;;;;;2123939;28;19923;-44
2022/07/01 00:23:56;;;;;;;;;;;;;;;;;;2123611;28;19927;-44
2022/07/01 00:24:57;;;;;;;;;;;;;;;;;;2123535;28;20069;-45
2022/07/01 00:25:58;;;;;;;;;;;;;;;;;;2123672;27;20006;-44
2022/07/01 00:26:59;;;;;;;;;;;;;;;;;;2123724;28;19971;-44
2022/07/01 00:27:59;;;;;;;;;;;;;;;;;;2123588;28;19923;-44
2022/07/01 00:29:00;;;;;;;;;;;;;;;;;;2123584;28;20014;-44
2022/07/01 00:30:01;;;;;;;;;;;;;;;;;;2123545;28;19970;-45
2022/07/01 00:31:02;;;;;;;;;;;;;;;;;;2123463;27;19942;-45
2022/07/01 00:32:03;;;;;;;;;;;;;;;;;;2123662;28;20006;-45
2022/07/01 00:33:04;;;;;;;;;;;;;;;;;;2123548;28;20134;-44
2022/07/01 00:34:05;;;;;;;;;;;;;;;;;;2123500;28;19973;-45
2022/07/01 00:35:06;;;;;;;;;;;;;;;;;;2123630;28;19976;-45
2022/07/01 00:36:06;;;;;;;;;;;;;;;;;;2123479;27;20014;-45
2022/07/01 00:37:07;;;;;;;;;;;;;;;;;;2123902;28;19948;-45
2022/07/01 00:38:08;;;;;;;;;;;;;;;;;;2123480;28;20010;-44
2022/07/01 00:39:09;;;;;;;;;;;;;;;;;;2123529;28;20284;-45
2022/07/01 00:40:10;;;;;;;;;;;;;;;;;;2123467;28;19946;-45
2022/07/01 00:41:11;;;;;;;;;;;;;;;;;;2123464;27;19931;-44
2022/07/01 00:42:12;;;;;;;;;;;;;;;;;;2123625;28;20007;-44
2022/07/01 00:43:13;;;;;;;;;;;;;;;;;;2123643;28;20299;-44
2022/07/01 00:44:14;;;;;;;;;;;;;;;;;;2123510;28;20610;-45
2022/07/01 00:45:14;;;;;;;;;;;;;;;;;;2123435;28;20005;-45
2022/07/01 00:46:15;;;;;;;;;;;;;;;;;;2123382;27;19931;-44
2022/07/01 00:47:21;;;;;;;;;;;;;;;;;;2123467;28;20257;-45
2022/07/01 00:48:22;;;;;;;;;;;;;;;;;;2123415;28;19924;-46
2022/07/01 00:49:23;;;;;;;;;;;;;;;;;;2123439;28;19923;-44
2022/07/01 00:50:23;;;;;;;;;;;;;;;;;;2123446;28;20389;-44
2022/07/01 00:51:24;;;;;;;;;;;;;;;;;;2123331;27;19923;-44
2022/07/01 00:52:25;;;;;;;;;;;;;;;;;;2123403;28;20028;-44
2022/07/01 00:53:30;;;;;;;;;;;;;;;;;;2131287;27;19949;-45
2022/07/01 00:54:31;;;;;;;;;;;;;;;;;;2131978;27;19922;-44
2022/07/01 00:55:32;;;;;;;;;;;;;;;;;;2132246;27;19959;-45
2022/07/01 00:56:32;;;;;;;;;;;;;;;;;;2131869;27;20046;-44
2022/07/01 00:57:33;;;;;;;;;;;;;;;;;;2131878;27;19987;-44
2022/07/01 00:58:34;;;;;;;;;;;;;;;;;;2131890;27;19929;-45
2022/07/01 00:59:35;;;;;;;;;;;;;;;;;;2131945;27;20392;-44
2022/07/01 01:00:36;;;;;;;;;;;;;;;;;;2131923;27;20019;-45
2022/07/01 01:01:37;;;;;;;;;;;;;;;;;;2132002;27;19923;-44
2022/07/01 01:02:38;;;;;;;;;;;;;;;;;;2132225;27;20024;-45
2022/07/01 01:03:39;;;;;;;;;;;;;;;;;;2132008;27;19923;-44
2022/07/01 01:04:40;;;;;;;;;;;;;;;;;;2131782;27;20292;-44
2022/07/01 01:05:41;;;;;;;;;;;;;;;;;;2131860;27;20447;-45
2022/07/01 01:06:42;;;;;;;;;;;;;;;;;;2131941;27;20046;-45
2022/07/01 01:07:43;;;;;;;;;;;;;;;;;;2131793;27;19973;-44
2022/07/01 01:08:44;;;;;;;;;;;;;;;;;;2132049;27;19961;-44
2022/07/01 01:09:45;;;;;;;;;;;;;;;;;;2131770;27;19930;-44
2022/07/01 01:10:46;;;;;;;;;;;;;;;;;;2131911;27;20470;-44
2022/07/01 01:11:47;;;;;;;;;;;;;;;;;;2124154;27;19972;-44
2022/07/01 01:12:47;;;;;;;;;;;;;;;;;;2123830;28;19923;-44
2022/07/01 01:13:48;;;;;;;;;;;;;;;;;;2123278;28;19992;-44
2022/07/01 01:14:49;;;;;;;;;;;;;;;;;;2123454;28;19923;-44
2022/07/01 01:15:50;;;;;;;;;;;;;;;;;;2123198;27;19931;-44
2022/07/01 01:16:51;;;;;;;;;;;;;;;;;;2123214;28;19924;-44
2022/07/01 01:17:52;;;;;;;;;;;;;;;;;;2123419;28;19930;-43
2022/07/01 01:18:53;;;;;;;;;;;;;;;;;;2123196;28;20307;-44
2022/07/01 01:19:54;;;;;;;;;;;;;;;;;;2123289;28;19923;-45
2022/07/01 01:20:55;;;;;;;;;;;;;;;;;;2122539;27;19972;-45
2022/07/01 01:21:55;;;;;;;;;;;;;;;;;;2123301;28;20010;-44
2022/07/01 01:22:56;;;;;;;;;;;;;;;;;;2123222;28;19931;-44
2022/07/01 01:23:57;;;;;;;;;;;;;;;;;;2123405;28;19923;-45
2022/07/01 01:24:58;;;;;;;;;;;;;;;;;;2123201;28;19972;-46
2022/07/01 01:25:59;;;;;;;;;;;;;;;;;;2123224;27;19924;-45
2022/07/01 01:27:00;;;;;;;;;;;;;;;;;;2123329;28;20303;-44
2022/07/01 01:28:01;;;;;;;;;;;;;;;;;;2123176;28;20014;-44
2022/07/01 01:29:02;;;;;;;;;;;;;;;;;;2123216;28;20362;-45
2022/07/01 01:30:02;;;;;;;;;;;;;;;;;;2123160;28;19924;-44
2022/07/01 01:31:04;;;;;;;;;;;;;;;;;;2123448;27;20002;-43
2022/07/01 01:32:05;;;;;;;;;;;;;;;;;;2123184;28;20007;-45
2022/07/01 01:33:07;;;;;;;;;;;;;;;;;;2123467;28;19924;-45
2022/07/01 01:34:08;;;;;;;;;;;;;;;;;;2123459;28;19981;-44
2022/07/01 01:35:09;;;;;;;;;;;;;;;;;;2123447;28;20009;-44
2022/07/01 01:36:10;;;;;;;;;;;;;;;;;;2123151;27;20331;-46
2022/07/01 01:37:11;;;;;;;;;;;;;;;;;;2123202;28;20400;-45
2022/07/01 01:38:12;;;;;;;;;;;;;;;;;;2123149;28;19931;-45
2022/07/01 01:39:13;;;;;;;;;;;;;;;;;;2123106;28;20014;-44
2022/07/01 01:40:14;;;;;;;;;;;;;;;;;;2123234;28;19923;-45
2022/07/01 01:41:14;;;;;;;;;;;;;;;;;;2123060;27;19963;-44
2022/07/01 01:42:15;;;;;;;;;;;;;;;;;;2123242;28;19930;-44
2022/07/01 01:43:16;;;;;;;;;;;;;;;;;;2123171;28;20240;-45
2022/07/01 01:44:18;;;;;;;;;;;;;;;;;;2123345;28;20014;-44
2022/07/01 01:45:19;;;;;;;;;;;;;;;;;;2123420;28;20006;-45
2022/07/01 01:46:20;;;;;;;;;;;;;;;;;;2123052;27;20021;-44
2022/07/01 01:47:21;;;;;;;;;;;;;;;;;;2123039;28;19927;-46
2022/07/01 01:48:21;;;;;;;;;;;;;;;;;;2123429;28;19927;-45
2022/07/01 01:49:22;;;;;;;;;;;;;;;;;;2127771;27;19972;-44
2022/07/01 01:50:23;;;;;;;;;;;;;;;;;;2131531;27;20291;-45
2022/07/01 01:51:24;;;;;;;;;;;;;;;;;;2131830;27;20017;-46
2022/07/01 01:52:25;;;;;;;;;;;;;;;;;;2131533;27;19977;-44
2022/07/01 01:53:26;;;;;;;;;;;;;;;;;;2131717;27;19923;-44
2022/07/01 01:54:27;;;;;;;;;;;;;;;;;;2131795;27;21197;-45
2022/07/01 01:55:28;;;;;;;;;;;;;;;;;;2131774;27;20014;-45
2022/07/01 01:56:29;;;;;;;;;;;;;;;;;;2131822;27;19962;-44
2022/07/01 01:57:30;;;;;;;;;;;;;;;;;;2131919;27;19931;-45
2022/07/01 01:58:31;;;;;;;;;;;;;;;;;;2131662;27;19967;-45
2022/07/01 01:59:32;;;;;;;;;;;;;;;;;;2131698;27;20295;-45
2022/07/01 02:00:32;;;;;;;;;;;;;;;;;;2131699;27;19957;-44
2022/07/01 02:01:33;;;;;;;;;;;;;;;;;;2131460;27;20273;-44
2022/07/01 02:02:36;;;;;;;;;;;;;;;;;;2131962;27;20053;-45
2022/07/01 02:03:37;;;;;;;;;;;;;;;;;;2131563;27;19923;-44
2022/07/01 02:04:38;;;;;;;;;;;;;;;;;;2131554;27;20384;-45
2022/07/01 02:05:39;;;;;;;;;;;;;;;;;;2131592;27;19949;-45
2022/07/01 02:06:44;;;;;;;;;;;;;;;;;;2131404;27;20383;-45
2022/07/01 02:07:45;;;;;;;;;;;;;;;;;;2131652;27;20428;-44
2022/07/01 02:08:46;;;;;;;;;;;;;;;;;;2131769;27;19923;-44
2022/07/01 02:09:46;;;;;;;;;;;;;;;;;;2131610;27;20022;-44
2022/07/01 02:10:48;;;;;;;;;;;;;;;;;;2131530;27;19930;-44
2022/07/01 02:11:53;;;;;;;;;;;;;;;;;;2122988;27;20418;-44
2022/07/01 02:12:54;;;;;;;;;;;;;;;;;;2123043;28;20416;-45
2022/07/01 02:13:55;;;;;;;;;;;;;;;;;;2123081;28;19923;-44
2022/07/01 02:14:56;;;;;;;;;;;;;;;;;;2123374;28;20003;-45
2022/07/01 02:15:57;;;;;;;;;;;;;;;;;;2123198;27;19923;-44
2022/07/01 02:16:58;;;;;;;;;;;;;;;;;;2122905;28;19931;-44
2022/07/01 02:18:00;;;;;;;;;;;;;;;;;;2122988;28;19928;-45
2022/07/01 02:19:01;;;;;;;;;;;;;;;;;;2122984;28;20010;-46
2022/07/01 02:20:02;;;;;;;;;;;;;;;;;;2123091;28;20261;-47
2022/07/01 02:21:03;;;;;;;;;;;;;;;;;;2123084;27;20272;-44
2022/07/01 02:22:09;;;;;;;;;;;;;;;;;;2123093;28;20009;-45
2022/07/01 02:23:09;;;;;;;;;;;;;;;;;;2123169;28;20443;-46
2022/07/01 02:24:10;;;;;;;;;;;;;;;;;;2122792;28;19935;-44
2022/07/01 02:25:11;;;;;;;;;;;;;;;;;;2122924;28;20369;-44
2022/07/01 02:26:12;;;;;;;;;;;;;;;;;;2122837;27;19924;-44
2022/07/01 02:27:13;;;;;;;;;;;;;;;;;;2122811;28;20060;-45
2022/07/01 02:28:14;;;;;;;;;;;;;;;;;;2122900;28;19988;-45
2022/07/01 02:29:15;;;;;;;;;;;;;;;;;;2123259;28;19999;-44
2022/07/01 02:30:16;;;;;;;;;;;;;;;;;;2122953;28;19985;-47
2022/07/01 02:31:17;;;;;;;;;;;;;;;;;;2122975;27;20379;-47
2022/07/01 02:32:18;;;;;;;;;;;;;;;;;;2122892;27;19971;-48
2022/07/01 02:33:19;;;;;;;;;;;;;;;;;;2123362;28;19966;-46
2022/07/01 02:34:20;;;;;;;;;;;;;;;;;;2124971;28;20010;-46
2022/07/01 02:35:21;;;;;;;;;;;;;;;;;;2124307;28;19935;-46
2022/07/01 02:36:22;;;;;;;;;;;;;;;;;;2124158;27;19929;-46
2022/07/01 02:37:23;;;;;;;;;;;;;;;;;;2124331;28;19927;-47
2022/07/01 02:38:24;;;;;;;;;;;;;;;;;;2124384;28;19979;-46
2022/07/01 02:39:24;;;;;;;;;;;;;;;;;;2124169;28;20348;-47
2022/07/01 02:40:25;;;;;;;;;;;;;;;;;;2124632;28;19931;-45
2022/07/01 02:41:26;;;;;;;;;;;;;;;;;;2124453;27;19923;-47
2022/07/01 02:42:27;;;;;;;;;;;;;;;;;;2124307;28;19923;-47
2022/07/01 02:43:29;;;;;;;;;;;;;;;;;;2124263;28;19976;-46
2022/07/01 02:44:30;;;;;;;;;;;;;;;;;;2124211;28;19930;-46
2022/07/01 02:45:31;;;;;;;;;;;;;;;;;;2128095;27;19930;-46
2022/07/01 02:46:31;;;;;;;;;;;;;;;;;;2132704;27;20396;-44
2022/07/01 02:47:33;;;;;;;;;;;;;;;;;;2133004;27;19962;-44
2022/07/01 02:48:34;;;;;;;;;;;;;;;;;;2132815;27;19962;-45
2022/07/01 02:49:35;;;;;;;;;;;;;;;;;;2132967;27;19930;-44
2022/07/01 02:50:36;;;;;;;;;;;;;;;;;;2132843;27;20221;-44
2022/07/01 02:51:36;;;;;;;;;;;;;;;;;;2132826;27;20240;-45
2022/07/01 02:52:37;;;;;;;;;;;;;;;;;;2133169;27;19927;-44
2022/07/01 02:53:39;;;;;;;;;;;;;;;;;;2133118;27;19923;-44
2022/07/01 02:54:39;;;;;;;;;;;;;;;;;;2132676;27;20455;-44
2022/07/01 02:55:41;;;;;;;;;;;;;;;;;;2132962;27;19931;-45
2022/07/01 02:56:42;;;;;;;;;;;;;;;;;;2132841;27;20375;-44
2022/07/01 02:57:43;;;;;;;;;;;;;;;;;;2132699;27;20245;-44
2022/07/01 02:58:44;;;;;;;;;;;;;;;;;;2132843;27;20059;-45
2022/07/01 02:59:45;;;;;;;;;;;;;;;;;;2132761;27;20392;-45
2022/07/01 03:00:48;;;;;;;;;;;;;;;;;;2132819;27;20435;-44
2022/07/01 03:01:52;;;;;;;;;;;;;;;;;;2133240;27;19937;-46
2022/07/01 03:02:53;;;;;;;;;;;;;;;;;;2132746;27;19923;-46
2022/07/01 03:03:54;;;;;;;;;;;;;;;;;;2132689;27;19930;-46
2022/07/01 03:04:55;;;;;;;;;;;;;;;;;;2132777;27;20010;-47
2022/07/01 03:05:56;;;;;;;;;;;;;;;;;;2132693;27;19931;-47
2022/07/01 03:06:57;;;;;;;;;;;;;;;;;;2132623;27;19966;-47
2022/07/01 03:07:58;;;;;;;;;;;;;;;;;;2132818;27;20005;-46
2022/07/01 03:08:58;;;;;;;;;;;;;;;;;;2132679;27;20005;-47
2022/07/01 03:09:59;;;;;;;;;;;;;;;;;;2132712;27;19965;-46
2022/07/01 03:11:00;;;;;;;;;;;;;;;;;;2131526;27;20017;-47
2022/07/01 03:12:24;;;;;;;;;;;;;;;;;;2124088;28;19923;-47
2022/07/01 03:13:22;;;;;;;;;;;;;;;;;;2123983;28;19979;-47
2022/07/01 03:14:23;;;;;;;;;;;;;;;;;;2124208;28;20071;-46
2022/07/01 03:15:24;;;;;;;;;;;;;;;;;;2124008;28;19980;-46
2022/07/01 03:16:25;;;;;;;;;;;;;;;;;;2124202;27;20421;-47
2022/07/01 03:17:26;;;;;;;;;;;;;;;;;;2124208;28;19958;-47
2022/07/01 03:18:27;;;;;;;;;;;;;;;;;;2124017;28;20444;-47
2022/07/01 03:19:28;;;;;;;;;;;;;;;;;;2124075;28;19947;-46
2022/07/01 03:20:29;;;;;;;;;;;;;;;;;;2124096;28;19924;-47
2022/07/01 03:21:30;;;;;;;;;;;;;;;;;;2124092;27;19923;-47
2022/07/01 03:22:31;;;;;;;;;;;;;;;;;;2124214;28;20014;-46
2022/07/01 03:23:32;;;;;;;;;;;;;;;;;;2124407;28;19923;-44
2022/07/01 03:24:33;;;;;;;;;;;;;;;;;;2124189;28;20448;-44
2022/07/01 03:25:35;;;;;;;;;;;;;;;;;;2123924;28;20327;-44
2022/07/01 03:26:36;;;;;;;;;;;;;;;;;;2124025;27;20011;-44
2022/07/01 03:27:44;;;;;;;;;;;;;;;;;;2123932;28;19930;-45
2022/07/01 03:28:45;;;;;;;;;;;;;;;;;;2123999;28;20010;-44
2022/07/01 03:29:46;;;;;;;;;;;;;;;;;;2123955;28;19962;-45
2022/07/01 03:30:47;;;;;;;;;;;;;;;;;;2124131;28;19962;-45
2022/07/01 03:31:48;;;;;;;;;;;;;;;;;;2123730;27;19931;-44
2022/07/01 03:32:49;;;;;;;;;;;;;;;;;;2124076;28;20319;-44
2022/07/01 03:33:49;;;;;;;;;;;;;;;;;;2123963;28;19924;-45
2022/07/01 03:34:50;;;;;;;;;;;;;;;;;;2124185;28;20319;-47
2022/07/01 03:35:51;;;;;;;;;;;;;;;;;;2123836;27;20421;-46
2022/07/01 03:36:52;;;;;;;;;;;;;;;;;;2123941;28;19923;-46
2022/07/01 03:37:53;;;;;;;;;;;;;;;;;;2123845;28;20010;-46
2022/07/01 03:38:54;;;;;;;;;;;;;;;;;;2124111;28;20016;-46
2022/07/01 03:39:55;;;;;;;;;;;;;;;;;;2123840;28;20376;-45
2022/07/01 03:40:56;;;;;;;;;;;;;;;;;;2123754;27;19930;-46
2022/07/01 03:41:57;;;;;;;;;;;;;;;;;;2129201;27;19923;-45
2022/07/01 03:42:57;;;;;;;;;;;;;;;;;;2132571;27;19950;-45
2022/07/01 03:43:58;;;;;;;;;;;;;;;;;;2132290;27;19923;-44
2022/07/01 03:44:59;;;;;;;;;;;;;;;;;;2132461;27;19923;-45
2022/07/01 03:46:00;;;;;;;;;;;;;;;;;;2132385;27;19930;-44
2022/07/01 03:47:01;;;;;;;;;;;;;;;;;;2132634;27;19923;-47
2022/07/01 03:48:02;;;;;;;;;;;;;;;;;;2132535;27;20025;-47
2022/07/01 03:49:03;;;;;;;;;;;;;;;;;;2132291;27;19923;-46
2022/07/01 03:50:04;;;;;;;;;;;;;;;;;;2132408;27;19992;-46
2022/07/01 03:51:05;;;;;;;;;;;;;;;;;;2132362;27;19969;-49
2022/07/01 03:52:07;;;;;;;;;;;;;;;;;;2132377;27;19928;-48
2022/07/01 03:54:29;;;;;;;;;;;;;;;;;;2132461;27;19923;-47
2022/07/01 03:55:30;;;;;;;;;;;;;;;;;;2132679;27;20364;-46
2022/07/01 03:56:31;;;;;;;;;;;;;;;;;;2132084;27;19934;-43
2022/07/01 03:57:32;;;;;;;;;;;;;;;;;;2132516;27;19923;-45
2022/07/01 03:58:33;;;;;;;;;;;;;;;;;;2132416;27;19923;-45
2022/07/01 03:59:35;;;;;;;;;;;;;;;;;;2132477;27;20357;-44
2022/07/01 04:00:36;;;;;;;;;;;;;;;;;;2132390;27;20048;-45
2022/07/01 04:01:37;;;;;;;;;;;;;;;;;;2132387;27;19938;-45
2022/07/01 04:02:38;;;;;;;;;;;;;;;;;;2132312;27;19976;-46
2022/07/01 04:03:39;;;;;;;;;;;;;;;;;;2132362;27;19923;-45
2022/07/01 04:04:40;;;;;;;;;;;;;;;;;;2132271;27;20359;-45
2022/07/01 04:05:41;;;;;;;;;;;;;;;;;;2132329;27;20296;-47
2022/07/01 04:06:42;;;;;;;;;;;;;;;;;;2132220;27;19923;-48
2022/07/01 04:07:43;;;;;;;;;;;;;;;;;;2132239;27;19930;-46
2022/07/01 04:08:44;;;;;;;;;;;;;;;;;;2132339;27;20279;-47
2022/07/01 04:09:45;;;;;;;;;;;;;;;;;;2132276;27;19966;-46
2022/07/01 04:10:46;;;;;;;;;;;;;;;;;;2132280;27;20013;-45
2022/07/01 04:11:47;;;;;;;;;;;;;;;;;;2132132;27;19930;-46
2022/07/01 04:12:47;;;;;;;;;;;;;;;;;;2132363;27;19923;-46
2022/07/01 04:13:53;;;;;;;;;;;;;;;;;;2132515;27;19975;-44
2022/07/01 04:14:54;;;;;;;;;;;;;;;;;;2132344;27;19926;-44
2022/07/01 04:15:55;;;;;;;;;;;;;;;;;;2132223;27;20033;-45
2022/07/01 04:16:56;;;;;;;;;;;;;;;;;;2132468;27;20377;-44
2022/07/01 04:17:56;;;;;;;;;;;;;;;;;;2132424;27;19923;-43
2022/07/01 04:18:57;;;;;;;;;;;;;;;;;;2132194;27;19929;-44
2022/07/01 04:19:58;;;;;;;;;;;;;;;;;;2132345;27;19923;-43
2022/07/01 04:22:35;;;;;;;;;;;;;;;;;;2132298;27;19965;-43
2022/07/01 04:23:36;;;;;;;;;;;;;;;;;;2132145;27;20006;-44
2022/07/01 04:24:37;;;;;;;;;;;;;;;;;;2132209;27;20308;-43
2022/07/01 04:25:38;;;;;;;;;;;;;;;;;;2132459;27;19923;-44
2022/07/01 04:26:39;;;;;;;;;;;;;;;;;;2132099;27;20288;-46
2022/07/01 04:27:40;;;;;;;;;;;;;;;;;;2132351;27;20014;-43
2022/07/01 04:28:41;;;;;;;;;;;;;;;;;;2132261;27;19975;-44
2022/07/01 04:29:42;;;;;;;;;;;;;;;;;;2132155;27;19990;-43
2022/07/01 04:30:42;;;;;;;;;;;;;;;;;;2132321;27;19923;-43
2022/07/01 04:31:43;;;;;;;;;;;;;;;;;;2132205;27;19930;-47
2022/07/01 04:32:44;;;;;;;;;;;;;;;;;;2132386;27;19923;-44
2022/07/01 04:33:45;;;;;;;;;;;;;;;;;;2132128;27;19923;-44
2022/07/01 04:34:46;;;;;;;;;;;;;;;;;;2132364;27;20014;-45
2022/07/01 04:35:47;;;;;;;;;;;;;;;;;;2132187;27;19930;-43
2022/07/01 04:36:48;;;;;;;;;;;;;;;;;;2132074;27;20029;-44
2022/07/01 04:37:49;;;;;;;;;;;;;;;;;;2132143;27;19954;-45
2022/07/01 04:38:50;;;;;;;;;;;;;;;;;;2131913;27;19930;-44
2022/07/01 04:39:51;;;;;;;;;;;;;;;;;;2132224;27;19933;-45
2022/07/01 04:42:07;;;;;;;;;;;;;;;;;;2131321;27;20010;-47
2022/07/01 04:43:08;;;;;;;;;;;;;;;;;;2132223;27;19981;-44
2022/07/01 04:44:09;;;;;;;;;;;;;;;;;;2132345;27;20010;-45
2022/07/01 04:45:10;;;;;;;;;;;;;;;;;;2132164;27;19965;-45
2022/07/01 04:46:11;;;;;;;;;;;;;;;;;;2132044;27;20014;-45
2022/07/01 04:47:12;;;;;;;;;;;;;;;;;;2132203;27;19923;-45
2022/07/01 04:48:14;;;;;;;;;;;;;;;;;;2132393;27;19923;-47
2022/07/01 04:49:15;;;;;;;;;;;;;;;;;;2131974;27;20014;-46
2022/07/01 04:50:16;;;;;;;;;;;;;;;;;;2132047;27;20035;-45
2022/07/01 04:51:17;;;;;;;;;;;;;;;;;;2132009;27;19984;-45
2022/07/01 04:52:18;;;;;;;;;;;;;;;;;;2132007;27;19929;-44
2022/07/01 04:53:18;;;;;;;;;;;;;;;;;;2132164;27;20018;-44
2022/07/01 04:54:19;;;;;;;;;;;;;;;;;;2131971;27;20416;-44
2022/07/01 04:55:20;;;;;;;;;;;;;;;;;;2132035;27;20201;-44
2022/07/01 04:56:21;;;;;;;;;;;;;;;;;;2131185;27;19933;-44
2022/07/01 04:57:22;;;;;;;;;;;;;;;;;;2131999;27;20006;-44
2022/07/01 04:58:23;;;;;;;;;;;;;;;;;;2132130;27;19963;-46
2022/07/01 04:59:24;;;;;;;;;;;;;;;;;;2131909;27;20397;-47
2022/07/01 05:00:25;;;;;;;;;;;;;;;;;;2132124;27;20451;-49
2022/07/01 05:01:26;;;;;;;;;;;;;;;;;;2131824;27;19968;-46
2022/07/01 05:02:27;;;;;;;;;;;;;;;;;;2132116;27;20431;-48
2022/07/01 05:03:27;;;;;;;;;;;;;;;;;;2131885;27;19923;-49
2022/07/01 05:04:28;;;;;;;;;;;;;;;;;;2131949;27;19958;-47
2022/07/01 05:05:29;;;;;;;;;;;;;;;;;;2131818;27;19946;-46
2022/07/01 05:06:30;;;;;;;;;;;;;;;;;;2132220;27;20458;-44
2022/07/01 05:07:31;;;;;;;;;;;;;;;;;;2132029;27;19927;-44
2022/07/01 05:08:32;;;;;;;;;;;;;;;;;;2132004;27;19923;-47
2022/07/01 05:09:33;;;;;;;;;;;;;;;;;;2131842;27;19923;-47
2022/07/01 05:10:34;;;;;;;;;;;;;;;;;;2131833;27;20009;-46
2022/07/01 05:11:35;;;;;;;;;;;;;;;;;;2125944;27;19949;-46
2022/07/01 05:12:36;;;;;;;;;;;;;;;;;;2123225;28;20010;-46
2022/07/01 05:13:37;;;;;;;;;;;;;;;;;;2123446;28;19924;-46
2022/07/01 05:14:38;;;;;;;;;;;;;;;;;;2123709;28;20014;-47
2022/07/01 05:15:39;;;;;;;;;;;;;;;;;;2123215;28;19983;-48
2022/07/01 05:16:40;;;;;;;;;;;;;;;;;;2123485;27;20588;-43
2022/07/01 05:21:58;;;;;;;;;;;;;;;;;;2123248;27;20060;-47
2022/07/01 05:22:59;;;;;;;;;;;;;;;;;;2123231;28;20395;-47
2022/07/01 05:24:00;;;;;;;;;;;;;;;;;;2123299;28;19966;-46
2022/07/01 05:25:02;;;;;;;;;;;;;;;;;;2123392;28;19927;-47
2022/07/01 05:26:02;;;;;;;;;;;;;;;;;;2123105;27;20009;-47
2022/07/01 05:27:03;;;;;;;;;;;;;;;;;;2123318;28;20008;-46
2022/07/01 05:28:04;;;;;;;;;;;;;;;;;;2123080;28;19924;-46
2022/07/01 05:29:05;;;;;;;;;;;;;;;;;;2123413;28;20377;-44
2022/07/01 05:30:07;;;;;;;;;;;;;;;;;;2123288;28;19930;-44
2022/07/01 05:31:07;;;;;;;;;;;;;;;;;;2123130;27;20006;-45
2022/07/01 05:32:08;;;;;;;;;;;;;;;;;;2123542;28;19984;-46
2022/07/01 05:33:10;;;;;;;;;;;;;;;;;;2123273;28;19977;-47
2022/07/01 05:34:11;;;;;;;;;;;;;;;;;;2126625;27;19955;-45
2022/07/01 05:35:12;;;;;;;;;;;;;;;;;;2131667;27;20005;-44
2022/07/01 05:36:13;;;;;;;;;;;;;;;;;;2131811;27;19946;-47
2022/07/01 05:37:16;;;;;;;;;;;;;;;;;;2131629;27;19930;-46
2022/07/01 05:38:17;;;;;;;;;;;;;;;;;;2131770;27;19923;-46
2022/07/01 05:39:18;;;;;;;;;;;;;;;;;;2131843;27;19958;-47
2022/07/01 05:40:19;;;;;;;;;;;;;;;;;;2131813;27;19924;-46
2022/07/01 05:41:20;;;;;;;;;;;;;;;;;;2131825;27;20390;-46
2022/07/01 05:42:21;;;;;;;;;;;;;;;;;;2132032;27;20146;-48
2022/07/01 05:43:21;;;;;;;;;;;;;;;;;;2131805;27;20021;-46
2022/07/01 05:44:23;;;;;;;;;;;;;;;;;;2131838;27;20042;-43
2022/07/01 05:45:24;;;;;;;;;;;;;;;;;;2131964;27;19971;-46
2022/07/01 05:46:25;;;;;;;;;;;;;;;;;;2131519;27;20444;-47
2022/07/01 05:47:26;;;;;;;;;;;;;;;;;;2132147;27;19992;-46
2022/07/01 05:48:26;;;;;;;;;;;;;;;;;;2131643;27;20056;-46
2022/07/01 05:49:27;;;;;;;;;;;;;;;;;;2131871;27;19923;-46
2022/07/01 05:50:28;;;;;;;;;;;;;;;;;;2131599;27;19929;-44
2022/07/01 05:51:29;;;;;;;;;;;;;;;;;;2131560;27;20458;-44
2022/07/01 05:52:30;;;;;;;;;;;;;;;;;;2131716;27;19927;-44
2022/07/01 05:53:31;;;;;;;;;;;;;;;;;;2131820;27;20341;-44
2022/07/01 05:54:32;;;;;;;;;;;;;;;;;;2131880;27;19923;-45
2022/07/01 05:55:33;;;;;;;;;;;;;;;;;;2131791;27;19971;-46
2022/07/01 05:56:34;;;;;;;;;;;;;;;;;;2131771;27;19923;-44
2022/07/01 05:57:34;;;;;;;;;;;;;;;;;;2131600;27;19986;-45
2022/07/01 05:58:35;;;;;;;;;;;;;;;;;;2131761;27;19923;-44
2022/07/01 05:59:37;;;;;;;;;;;;;;;;;;2131708;27;19923;-45
2022/07/01 06:00:37;;;;;;;;;;;;;;;;;;2131737;27;19923;-45
2022/07/01 06:01:38;;;;;;;;;;;;;;;;;;2131616;27;19946;-44
2022/07/01 06:02:39;;;;;;;;;;;;;;;;;;2131727;27;19923;-46
2022/07/01 06:03:40;;;;;;;;;;;;;;;;;;2131708;27;19923;-46
2022/07/01 06:04:43;;;;;;;;;;;;;;;;;;2131706;27;20294;-46
2022/07/01 06:05:44;;;;;;;;;;;;;;;;;;2132166;27;19923;-44
2022/07/01 06:06:45;;;;;;;;;;;;;;;;;;2131351;27;19930;-45
2022/07/01 06:07:46;;;;;;;;;;;;;;;;;;2133100;27;20031;-44
2022/07/01 06:08:47;;;;;;;;;;;;;;;;;;2133205;27;20337;-45
2022/07/01 06:09:48;;;;;;;;;;;;;;;;;;2133134;27;19966;-45
2022/07/01 06:10:49;;;;;;;;;;;;;;;;;;2133145;27;19923;-46
2022/07/01 06:11:50;;;;;;;;;;;;;;;;;;2132997;27;19971;-45
2022/07/01 06:12:51;;;;;;;;;;;;;;;;;;2133312;27;19931;-44
2022/07/01 06:13:52;;;;;;;;;;;;;;;;;;2132977;27;20396;-45
2022/07/01 06:14:52;;;;;;;;;;;;;;;;;;2133178;27;19923;-46
2022/07/01 06:15:54;;;;;;;;;;;;;;;;;;2133023;27;19974;-45
2022/07/01 06:16:55;;;;;;;;;;;;;;;;;;2133548;27;19923;-46
2022/07/01 06:17:56;;;;;;;;;;;;;;;;;;2133199;27;20010;-46
2022/07/01 06:18:57;;;;;;;;;;;;;;;;;;2133221;27;20010;-44
2022/07/01 06:19:58;;;;;;;;;;;;;;;;;;2133083;27;19933;-44
2022/07/01 06:20:59;;;;;;;;;;;;;;;;;;2133529;27;19945;-45
2022/07/01 06:21:59;;;;;;;;;;;;;;;;;;2132994;27;19978;-45
2022/07/01 06:23:00;;;;;;;;;;;;;;;;;;2133071;27;19968;-46
2022/07/01 06:24:01;;;;;;;;;;;;;;;;;;2133145;27;20017;-45
2022/07/01 06:25:02;;;;;;;;;;;;;;;;;;2133370;27;20428;-46
2022/07/01 06:26:03;;;;;;;;;;;;;;;;;;2133099;27;19923;-47
2022/07/01 06:27:04;;;;;;;;;;;;;;;;;;2133339;27;19923;-44
2022/07/01 06:28:05;;;;;;;;;;;;;;;;;;2133008;27;20006;-44
2022/07/01 06:29:06;;;;;;;;;;;;;;;;;;2133302;27;20291;-44
2022/07/01 06:30:06;;;;;;;;;;;;;;;;;;2132848;27;19923;-44
2022/07/01 06:31:08;;;;;;;;;;;;;;;;;;2133449;27;19970;-45
2022/07/01 06:32:08;;;;;;;;;;;;;;;;;;2133367;27;19923;-50
2022/07/01 06:33:09;;;;;;;;;;;;;;;;;;2133312;27;19926;-47
2022/07/01 06:34:10;;;;;;;;;;;;;;;;;;2132819;27;20032;-48
2022/07/01 06:35:11;;;;;;;;;;;;;;;;;;2133042;27;19950;-47
2022/07/01 06:36:13;;;;;;;;;;;;;;;;;;2132843;27;19967;-47
2022/07/01 06:37:14;;;;;;;;;;;;;;;;;;2132771;27;20029;-47
2022/07/01 06:38:15;;;;;;;;;;;;;;;;;;2133584;27;19954;-44
2022/07/01 06:39:16;;;;;;;;;;;;;;;;;;2133043;27;19923;-44
2022/07/01 06:40:17;;;;;;;;;;;;;;;;;;2132796;27;19923;-45
2022/07/01 06:41:27;;;;;;;;;;;;;;;;;;2132827;27;19963;-46
2022/07/01 06:42:28;;;;;;;;;;;;;;;;;;2132911;27;19930;-45
2022/07/01 06:43:29;;;;;;;;;;;;;;;;;;2132953;27;19988;-46
2022/07/01 06:44:29;;;;;;;;;;;;;;;;;;2133020;27;20026;-45
2022/07/01 06:45:31;;;;;;;;;;;;;;;;;;2133424;27;20001;-45
2022/07/01 06:46:32;;;;;;;;;;;;;;;;;;2132799;27;19965;-44
2022/07/01 06:47:33;;;;;;;;;;;;;;;;;;2133025;27;20046;-46
2022/07/01 06:48:35;;;;;;;;;;;;;;;;;;2133043;27;20021;-45
2022/07/01 06:49:36;;;;;;;;;;;;;;;;;;2132750;27;19964;-46
2022/07/01 06:50:37;;;;;;;;;;;;;;;;;;2132802;27;20356;-45
2022/07/01 06:51:37;;;;;;;;;;;;;;;;;;2132713;27;20006;-44
2022/07/01 06:52:39;;;;;;;;;;;;;;;;;;2132748;27;20388;-44
2022/07/01 06:53:39;;;;;;;;;;;;;;;;;;2133075;27;19924;-45
2022/07/01 06:54:40;;;;;;;;;;;;;;;;;;2132828;27;19927;-44
2022/07/01 06:55:42;;;;;;;;;;;;;;;;;;2132973;27;19927;-46
2022/07/01 06:56:45;;;;;;;;;;;;;;;;;;2132957;27;19923;-46
2022/07/01 06:57:46;;;;;;;;;;;;;;;;;;2132741;27;20291;-46
2022/07/01 06:58:47;;;;;;;;;;;;;;;;;;2132569;27;20405;-46
2022/07/01 06:59:49;;;;;;;;;;;;;;;;;;2132918;27;20178;-46
2022/07/01 07:00:49;;;;;;;;;;;;;;;;;;2133092;27;20013;-46
2022/07/01 07:01:50;;;;;;;;;;;;;;;;;;2133100;27;19973;-47
2022/07/01 07:02:51;;;;;;;;;;;;;;;;;;2133044;27;19929;-45
2022/07/01 07:03:53;;;;;;;;;;;;;;;;;;2132863;27;19929;-48
2022/07/01 07:04:57;;;;;;;;;;;;;;;;;;2132540;27;19923;-46
2022/07/01 07:06:01;;;;;;;;;;;;;;;;;;2132886;27;19999;-46